Time;durP1;ratioP1;P1;durP2;ratioP2;P2;SDS_P1;SDS_P2;PMS_P1;PMS_P2;Temp;Humidity;BMP_temperature;BMP_pressure;BME280_temperature;BME280_humidity;BME280_pressure;Samples;Min_cycle;Max_cycle;Signal;HPM_P1;HPM_P2
2022/12/12 00:01:09;;;;;;;;;41.50;33.25;;;;;0.75;70.33;100378.09;5098892;27;45453;-61
2022/12/12 00:03:35;;;;;;;;;41.50;33.00;;;;;0.83;69.86;100370.94;5099273;27;45389;-61
2022/12/12 00:06:03;;;;;;;;;47.00;39.00;;;;;0.81;69.83;100372.75;5097470;27;45459;-62
2022/12/12 00:08:29;;;;;;;;;32.75;26.00;;;;;0.74;69.63;100364.13;5090349;27;45350;-65
2022/12/12 00:10:55;;;;;;;;;36.00;31.00;;;;;0.72;69.85;100360.69;5098522;27;46209;-62
2022/12/12 00:13:20;;;;;;;;;43.50;30.50;;;;;0.76;69.69;100371.94;5098106;27;45278;-61
2022/12/12 00:15:46;;;;;;;;;30.00;25.75;;;;;0.73;70.42;100372.88;5098186;27;45429;-61
2022/12/12 00:18:11;;;;;;;;;36.50;30.00;;;;;0.72;70.00;100368.53;5079622;27;45559;-61
2022/12/12 00:20:37;;;;;;;;;37.75;33.50;;;;;0.74;70.23;100369.38;5076960;27;46749;-60
2022/12/12 00:23:02;;;;;;;;;44.75;31.50;;;;;0.73;70.47;100356.31;5090474;27;46031;-60
2022/12/12 00:25:27;;;;;;;;;43.00;38.00;;;;;0.75;70.51;100360.63;5078703;27;45490;-60
2022/12/12 00:27:53;;;;;;;;;37.00;33.50;;;;;0.81;70.17;100378.84;5078651;27;45272;-60
2022/12/12 00:30:18;;;;;;;;;36.00;29.50;;;;;0.80;70.32;100371.88;5097012;27;46305;-62
2022/12/12 00:32:43;;;;;;;;;41.75;30.25;;;;;0.84;70.48;100384.00;5097222;27;45336;-60
2022/12/12 00:35:09;;;;;;;;;37.50;32.00;;;;;0.80;70.61;100371.03;5084452;27;45463;-60
2022/12/12 00:37:34;;;;;;;;;31.00;25.50;;;;;0.77;70.55;100384.16;5078894;27;45307;-60
2022/12/12 00:40:00;;;;;;;;;37.50;29.50;;;;;0.69;70.90;100360.75;5097422;27;45398;-61
2022/12/12 00:42:26;;;;;;;;;46.25;30.75;;;;;0.82;70.43;100393.66;5096349;27;45495;-61
2022/12/12 00:44:51;;;;;;;;;39.50;33.00;;;;;0.79;70.46;100392.88;5092682;27;47188;-62
2022/12/12 00:47:17;;;;;;;;;43.75;33.50;;;;;0.84;70.10;100386.63;5079561;27;45998;-62
2022/12/12 00:49:42;;;;;;;;;41.50;33.50;;;;;0.94;70.36;100395.16;5092066;27;46088;-60
2022/12/12 00:52:08;;;;;;;;;31.25;19.50;;;;;0.88;70.14;100385.66;5095715;27;45441;-62
2022/12/12 00:54:36;;;;;;;;;31.75;21.00;;;;;0.92;70.14;100393.47;5068409;27;45418;-61
2022/12/12 00:57:01;;;;;;;;;30.25;25.50;;;;;0.81;69.94;100381.47;5067700;27;45770;-61
2022/12/12 00:59:27;;;;;;;;;27.25;18.75;;;;;0.91;69.83;100400.44;5096541;27;46149;-62
2022/12/12 01:01:52;;;;;;;;;28.50;27.25;;;;;0.93;69.74;100401.31;5095057;27;45438;-61
2022/12/12 01:04:18;;;;;;;;;32.00;26.50;;;;;0.87;70.20;100380.47;5095134;27;45631;-60
2022/12/12 01:06:43;;;;;;;;;29.50;27.00;;;;;0.96;70.11;100390.75;5097466;27;45466;-63
2022/12/12 01:09:08;;;;;;;;;38.75;31.00;;;;;0.89;70.29;100382.16;5093452;27;46366;-60
2022/12/12 01:11:34;;;;;;;;;32.75;26.00;;;;;0.89;70.41;100389.16;5096977;27;45294;-61
2022/12/12 01:14:00;;;;;;;;;32.25;23.50;;;;;0.84;70.02;100370.91;5095859;27;45539;-59
2022/12/12 01:16:25;;;;;;;;;28.50;21.50;;;;;0.89;70.59;100389.16;5091007;27;45481;-61
2022/12/12 01:18:51;;;;;;;;;33.25;28.00;;;;;0.90;70.67;100385.63;5080280;27;45439;-59
2022/12/12 01:21:18;;;;;;;;;21.00;16.00;;;;;0.96;70.57;100385.53;5079032;27;45422;-60
2022/12/12 01:23:43;;;;;;;;;35.75;28.50;;;;;0.92;69.82;100383.88;5097153;27;45322;-60
2022/12/12 01:26:16;;;;;;;;;33.00;25.50;;;;;0.83;70.42;100394.50;5089505;27;45205;-61
2022/12/12 01:28:42;;;;;;;;;24.75;23.00;;;;;0.86;70.09;100394.44;5076579;28;45531;-60
2022/12/12 01:31:08;;;;;;;;;21.50;19.25;;;;;0.88;69.74;100392.66;5067405;27;45267;-61
2022/12/12 01:33:34;;;;;;;;;29.25;27.00;;;;;0.84;69.93;100389.25;5096845;27;45445;-61
2022/12/12 01:36:00;;;;;;;;;31.75;21.50;;;;;0.90;69.59;100401.34;5097342;27;45573;-60
2022/12/12 01:38:25;;;;;;;;;43.00;28.25;;;;;0.88;69.77;100396.13;5109494;27;45278;-61
2022/12/12 01:40:51;;;;;;;;;25.75;23.25;;;;;0.86;69.94;100404.91;5098926;27;45330;-61
2022/12/12 01:43:19;;;;;;;;;21.75;20.00;;;;;0.92;69.68;100401.34;5099757;27;45457;-61
2022/12/12 01:46:07;;;;;;;;;25.00;22.50;;;;;0.95;69.88;100403.88;5076668;28;45555;-59
2022/12/12 01:48:40;;;;;;;;;30.75;23.75;;;;;0.86;69.57;100392.69;5088954;27;45237;-59
2022/12/12 01:51:14;;;;;;;;;28.25;24.25;;;;;0.82;69.84;100393.66;5117464;27;45433;-61
2022/12/12 01:53:40;;;;;;;;;27.75;24.25;;;;;0.98;69.18;100407.31;5080193;27;45405;-62
2022/12/12 01:56:12;;;;;;;;;29.50;23.00;;;;;0.99;69.60;100400.31;5099789;27;45394;-61
2022/12/12 01:58:41;;;;;;;;;34.00;26.50;;;;;1.01;69.64;100394.13;5100084;27;46370;-60
2022/12/12 02:01:08;;;;;;;;;24.50;24.50;;;;;1.01;69.13;100393.28;5081761;27;46231;-60
2022/12/12 02:03:34;;;;;;;;;27.25;25.00;;;;;1.04;68.50;100404.56;5119930;27;45242;-59
2022/12/12 02:06:05;;;;;;;;;21.50;20.00;;;;;1.02;68.43;100403.72;5121995;27;45516;-61
2022/12/12 02:08:31;;;;;;;;;31.00;27.25;;;;;0.95;68.67;100399.50;5121566;27;46070;-60
2022/12/12 02:10:57;;;;;;;;;33.00;30.50;;;;;0.96;68.76;100395.13;5119857;27;45333;-60
2022/12/12 02:13:28;;;;;;;;;25.00;22.75;;;;;0.93;68.48;100388.22;5101233;27;45247;-61
2022/12/12 02:16:16;;;;;;;;;34.50;25.00;;;;;0.97;68.61;100400.34;5102141;27;45407;-60
2022/12/12 02:18:47;;;;;;;;;27.75;21.75;;;;;1.05;68.46;100411.53;5080970;27;46575;-61
2022/12/12 02:21:35;;;;;;;;;28.00;26.25;;;;;1.03;68.08;100400.19;5061497;28;45553;-61
2022/12/12 02:24:26;;;;;;;;;34.25;26.75;;;;;1.07;68.33;100407.13;5080017;28;45355;-60
2022/12/12 02:26:55;;;;;;;;;16.00;9.50;;;;;1.10;67.97;100408.81;5079834;28;45534;-61
2022/12/12 02:29:57;;;;;;;;;24.25;22.75;;;;;1.06;67.72;100417.63;5091847;27;46212;-60
2022/12/12 02:32:47;;;;;;;;;27.25;21.00;;;;;1.11;68.54;100407.91;5099318;27;45446;-60
2022/12/12 02:35:40;;;;;;;;;38.25;30.50;;;;;1.10;68.26;100404.44;5083262;27;45363;-60
2022/12/12 02:38:30;;;;;;;;;33.50;22.50;;;;;1.07;68.32;100406.25;5080088;27;45474;-60
2022/12/12 02:41:21;;;;;;;;;22.75;16.00;;;;;1.07;68.21;100404.50;5096556;27;45404;-61
2022/12/12 02:44:12;;;;;;;;;27.25;22.75;;;;;1.14;68.40;100411.31;5099522;27;45409;-60
2022/12/12 02:47:02;;;;;;;;;32.75;27.75;;;;;1.12;68.10;100407.88;5107968;27;45405;-60
2022/12/12 02:49:38;;;;;;;;;32.00;25.75;;;;;1.16;68.38;100399.06;5076892;28;45367;-60
2022/12/12 02:52:04;;;;;;;;;32.25;26.50;;;;;1.25;68.22;100408.50;5094277;27;46377;-61
2022/12/12 02:54:29;;;;;;;;;28.50;21.50;;;;;1.27;67.89;100405.84;5081034;27;45317;-61
2022/12/12 02:56:58;;;;;;;;;31.75;23.50;;;;;1.22;67.63;100402.47;5099297;27;45587;-60
2022/12/12 02:59:44;;;;;;;;;32.25;25.25;;;;;1.24;67.29;100405.91;5109632;27;45401;-60
2022/12/12 03:07:45;;;;;;;;;28.00;19.50;;;;;1.21;67.94;100392.88;5118972;27;45454;-60
2022/12/12 03:08:51;;;;;;;;;17.50;11.50;;;;;1.18;68.28;100389.44;4985025;28;45417;-62
2022/12/12 03:11:36;;;;;;;;;38.00;24.75;;;;;1.15;67.77;100391.25;5074525;27;45436;-62
2022/12/12 03:14:12;;;;;;;;;33.00;24.50;;;;;1.15;67.86;100396.47;5079271;27;46057;-61
2022/12/12 03:16:46;;;;;;;;;29.75;19.00;;;;;1.19;67.63;100395.53;5081956;27;45306;-61
2022/12/12 03:19:26;;;;;;;;;29.50;25.00;;;;;1.17;67.38;100384.19;5097432;27;45456;-60
2022/12/12 03:22:06;;;;;;;;;26.00;24.00;;;;;1.14;68.14;100398.22;5081045;27;45500;-61
2022/12/12 03:24:55;;;;;;;;;32.75;27.25;;;;;1.12;68.33;100394.78;5085009;27;46253;-61
2022/12/12 03:27:30;;;;;;;;;32.00;25.75;;;;;1.09;68.14;100391.38;5036954;27;45579;-62
2022/12/12 03:30:04;;;;;;;;;21.50;21.50;;;;;1.10;68.23;100378.25;5106821;27;45398;-61
2022/12/12 03:32:39;;;;;;;;;18.50;16.00;;;;;1.03;67.68;100371.41;5078720;27;45270;-61
2022/12/12 03:35:26;;;;;;;;;29.25;22.50;;;;;1.14;68.24;100385.13;5093978;27;47120;-61
2022/12/12 03:38:21;;;;;;;;;19.75;19.00;;;;;1.18;68.27;100397.28;5114851;27;45288;-60
2022/12/12 03:40:54;;;;;;;;;29.00;21.50;;;;;1.20;68.03;100393.78;5097427;27;45444;-62
2022/12/12 03:43:31;;;;;;;;;29.75;22.50;;;;;1.24;67.58;100377.09;5079625;27;45375;-62
2022/12/12 03:46:05;;;;;;;;;27.50;22.50;;;;;1.21;67.92;100393.75;5079527;27;47772;-61
2022/12/12 03:48:35;;;;;;;;;31.00;24.00;;;;;1.24;68.33;100401.53;5097643;27;45232;-59
2022/12/12 03:51:12;;;;;;;;;30.00;23.00;;;;;1.25;68.09;100387.53;5098395;27;45547;-60
2022/12/12 03:53:45;;;;;;;;;29.00;22.50;;;;;1.32;67.60;100389.16;5098890;27;45539;-61
2022/12/12 03:56:36;;;;;;;;;31.50;28.25;;;;;1.39;67.91;100395.09;5098677;27;46276;-64
2022/12/12 03:59:10;;;;;;;;;32.75;23.50;;;;;1.43;67.46;100394.13;5047851;27;45403;-62
2022/12/12 04:01:49;;;;;;;;;24.50;21.00;;;;;1.45;66.76;100402.84;5100666;27;45376;-65
2022/12/12 04:04:23;;;;;;;;;31.50;26.25;;;;;1.37;67.23;100400.38;5099181;27;45466;-61
2022/12/12 04:06:58;;;;;;;;;35.50;24.25;;;;;1.37;67.96;100403.00;5080020;27;47316;-62
2022/12/12 04:15:11;;;;;;;;;33.50;22.75;;;;;1.42;66.98;100410.75;5098503;27;45431;-61
2022/12/12 04:18:06;;;;;;;;;35.25;27.00;;;;;1.37;67.64;100423.09;5097633;27;45385;-61
2022/12/12 04:23:53;;;;;;;;;18.00;16.00;;;;;1.44;68.00;100435.19;5098446;27;45421;-63
2022/12/12 04:26:39;;;;;;;;;35.25;26.25;;;;;1.46;67.76;100415.03;5098745;27;45294;-62
2022/12/12 04:29:23;;;;;;;;;26.75;20.00;;;;;1.46;67.29;100425.53;5080440;27;45773;-61
2022/12/12 04:32:19;;;;;;;;;24.75;21.50;;;;;1.51;67.34;100414.94;5097657;27;45173;-62
2022/12/12 04:35:12;;;;;;;;;30.25;20.00;;;;;1.38;67.18;100403.84;5077053;27;45846;-61
2022/12/12 04:37:43;;;;;;;;;22.00;19.00;;;;;1.30;67.34;100406.66;5088708;27;45664;-60
2022/12/12 04:40:15;;;;;;;;;28.50;20.50;;;;;1.40;67.79;100428.25;5077627;28;45442;-60
2022/12/12 04:42:47;;;;;;;;;14.00;10.50;;;;;1.39;68.49;100421.31;5081983;27;45360;-60
2022/12/12 04:45:18;;;;;;;;;21.00;20.25;;;;;1.38;67.50;100409.09;5095415;27;45279;-60
2022/12/12 04:47:48;;;;;;;;;27.75;27.00;;;;;1.31;67.41;100397.91;5091214;27;45489;-60
2022/12/12 04:50:15;;;;;;;;;30.25;19.25;;;;;1.43;67.44;100430.81;5095835;27;46176;-60
2022/12/12 04:52:43;;;;;;;;;34.75;24.75;;;;;1.41;67.80;100430.84;5062690;27;45380;-60
2022/12/12 04:55:11;;;;;;;;;31.50;15.50;;;;;1.36;67.81;100416.13;5092809;27;45533;-60
2022/12/12 04:57:47;;;;;;;;;27.50;21.50;;;;;1.43;68.02;100428.19;5097825;27;45364;-60
2022/12/12 05:00:13;;;;;;;;;26.75;24.75;;;;;1.45;67.58;100415.94;5097033;27;46151;-62
2022/12/12 05:03:05;;;;;;;;;32.75;23.00;;;;;1.53;67.98;100423.63;5111763;27;45247;-62
2022/12/12 05:05:53;;;;;;;;;29.50;26.75;;;;;1.50;67.34;100421.94;5118048;27;45478;-61
2022/12/12 05:08:25;;;;;;;;;34.75;29.25;;;;;1.47;67.49;100424.63;5087616;27;45434;-60
2022/12/12 05:10:55;;;;;;;;;32.50;28.00;;;;;1.50;67.95;100419.31;5097013;27;46124;-62
2022/12/12 05:13:31;;;;;;;;;38.25;27.25;;;;;1.48;67.04;100408.00;5078498;27;46105;-61
2022/12/12 05:15:59;;;;;;;;;35.75;27.50;;;;;1.48;68.11;100414.13;5079085;27;45320;-61
2022/12/12 05:18:25;;;;;;;;;35.75;32.50;;;;;1.47;67.04;100419.38;5100582;27;45381;-60
2022/12/12 05:20:51;;;;;;;;;68.33;49.00;;;;;1.50;67.29;100414.06;5089477;27;45459;-60
2022/12/12 05:23:17;;;;;;;;;77.00;56.33;;;;;1.50;67.69;100424.56;5096518;27;45432;-61
2022/12/12 05:25:42;;;;;;;;;64.33;48.00;;;;;1.51;67.82;100421.03;5081371;27;45413;-61
2022/12/12 05:28:07;;;;;;;;;55.25;45.25;;;;;1.46;67.03;100418.53;5097600;27;45318;-60
2022/12/12 05:30:33;;;;;;;;;41.25;34.50;;;;;1.53;67.52;100431.47;5095802;27;45278;-59
2022/12/12 05:32:58;;;;;;;;;45.50;30.50;;;;;1.54;67.72;100420.97;5097075;27;45493;-61
2022/12/12 05:35:24;;;;;;;;;38.00;33.50;;;;;1.49;68.14;100420.22;5100671;27;45738;-59
2022/12/12 05:37:50;;;;;;;;;29.00;23.50;;;;;1.47;67.55;100412.38;5117305;27;45273;-61
2022/12/12 05:40:15;;;;;;;;;42.25;30.00;;;;;1.42;67.54;100400.25;5113508;27;45430;-59
2022/12/12 05:42:41;;;;;;;;;42.25;33.25;;;;;1.44;68.16;100398.50;5077080;27;45328;-59
2022/12/12 05:45:07;;;;;;;;;30.00;25.75;;;;;1.46;67.97;100408.03;5095939;27;45346;-60
2022/12/12 05:47:33;;;;;;;;;37.25;23.00;;;;;1.43;67.85;100400.25;5096987;27;45351;-62
2022/12/12 05:49:59;;;;;;;;;27.25;24.50;;;;;1.55;67.50;100409.59;5097342;27;46545;-60
2022/12/12 05:52:24;;;;;;;;;34.75;30.75;;;;;1.54;66.70;100394.75;5097228;27;45416;-60
2022/12/12 05:54:50;;;;;;;;;35.75;30.00;;;;;1.60;67.78;100406.88;5097147;27;45500;-63
2022/12/12 05:57:17;;;;;;;;;33.50;29.00;;;;;1.59;67.88;100403.41;5096742;27;45510;-61
2022/12/12 05:59:43;;;;;;;;;34.75;27.75;;;;;1.48;67.24;100387.03;5076589;27;45355;-62
2022/12/12 06:02:09;;;;;;;;;42.50;30.25;;;;;1.58;66.71;100396.44;5061600;27;45385;-66
2022/12/12 06:04:34;;;;;;;;;44.00;39.00;;;;;1.57;67.05;100406.97;5097237;27;45315;-62
2022/12/12 06:06:59;;;;;;;;;38.75;31.50;;;;;1.53;67.70;100406.13;5096733;27;45229;-61
2022/12/12 06:09:25;;;;;;;;;40.50;31.00;;;;;1.60;67.44;100427.84;5096724;27;46225;-61
2022/12/12 06:11:50;;;;;;;;;31.25;28.50;;;;;1.54;67.37;100410.47;5096124;27;47101;-63
2022/12/12 06:14:16;;;;;;;;;34.75;29.75;;;;;1.59;67.71;100408.63;5095350;27;45582;-61
2022/12/12 06:16:41;;;;;;;;;33.50;28.75;;;;;1.69;67.63;100420.66;5077463;27;45402;-61
2022/12/12 06:19:07;;;;;;;;;31.50;28.50;;;;;1.65;66.95;100423.34;5095611;27;45266;-61
2022/12/12 06:21:32;;;;;;;;;30.25;25.50;;;;;1.56;67.30;100406.06;5094884;27;45358;-59
2022/12/12 06:23:58;;;;;;;;;34.50;30.25;;;;;1.68;67.68;100421.53;5077839;27;45449;-61
2022/12/12 06:26:23;;;;;;;;;37.50;30.25;;;;;1.57;67.40;100406.97;5096018;27;45305;-60
2022/12/12 06:28:49;;;;;;;;;36.75;31.50;;;;;1.66;68.65;100419.84;5094544;27;46228;-61
2022/12/12 06:31:14;;;;;;;;;39.25;33.75;;;;;1.72;67.28;100424.97;5081127;27;45484;-65
2022/12/12 06:33:41;;;;;;;;;34.00;31.00;;;;;1.73;67.39;100422.28;5075206;27;45389;-61
2022/12/12 06:36:12;;;;;;;;;42.25;31.25;;;;;1.76;67.07;100434.47;5076027;28;45461;-63
2022/12/12 06:38:38;;;;;;;;;34.25;26.00;;;;;1.75;67.01;100441.47;5086535;27;45502;-60
2022/12/12 06:41:06;;;;;;;;;35.75;24.50;;;;;1.67;66.98;100427.66;5081372;27;45732;-61
2022/12/12 06:43:32;;;;;;;;;37.25;31.00;;;;;1.72;67.73;100425.81;5089550;27;45582;-62
2022/12/12 06:46:05;;;;;;;;;33.25;30.00;;;;;1.68;67.21;100425.91;5098217;27;45541;-60
2022/12/12 06:48:32;;;;;;;;;41.75;33.50;;;;;1.62;67.83;100416.44;5097842;27;46235;-59
2022/12/12 06:50:58;;;;;;;;;19.25;13.75;;;;;1.72;67.69;100431.06;5097784;27;45478;-62
2022/12/12 06:53:24;;;;;;;;;38.00;30.50;;;;;1.76;67.09;100430.09;5099619;27;45398;-61
2022/12/12 06:55:50;;;;;;;;;37.00;30.00;;;;;1.74;67.39;100436.25;5095742;27;45567;-69
2022/12/12 06:58:15;;;;;;;;;44.75;33.25;;;;;1.73;67.60;100424.06;5098653;27;46300;-67
2022/12/12 07:00:41;;;;;;;;;39.25;34.50;;;;;1.65;67.61;100408.50;5081029;27;45350;-62
2022/12/12 07:03:06;;;;;;;;;36.25;31.00;;;;;1.80;67.06;100432.63;5080993;27;45310;-64
2022/12/12 07:05:33;;;;;;;;;38.00;32.75;;;;;1.72;67.08;100415.34;5097722;27;45535;-60
2022/12/12 07:08:01;;;;;;;;;31.50;27.25;;;;;1.82;67.22;100420.34;5078666;28;45553;-59
2022/12/12 07:10:27;;;;;;;;;34.00;24.75;;;;;1.85;66.96;100412.44;5062464;27;45354;-62
2022/12/12 07:12:53;;;;;;;;;34.50;29.75;;;;;1.94;66.47;100420.06;5098576;27;46013;-62
2022/12/12 07:15:18;;;;;;;;;36.50;27.25;;;;;1.83;66.79;100412.47;5099404;27;45653;-61
2022/12/12 07:17:43;;;;;;;;;38.75;29.75;;;;;1.83;66.86;100414.22;5061000;27;46022;-60
2022/12/12 07:20:09;;;;;;;;;31.25;26.50;;;;;1.81;66.97;100421.25;5079088;27;54167;-62
2022/12/12 07:22:35;;;;;;;;;31.50;29.50;;;;;1.73;66.54;100411.81;5098851;27;45349;-59
2022/12/12 07:25:01;;;;;;;;;30.25;24.25;;;;;1.76;66.93;100434.47;5067712;27;45561;-59
2022/12/12 07:27:26;;;;;;;;;31.00;27.50;;;;;1.72;66.67;100431.06;5079163;27;47180;-60
2022/12/12 07:29:51;;;;;;;;;37.25;30.75;;;;;1.72;66.12;100438.06;5097083;27;45425;-59
2022/12/12 07:32:17;;;;;;;;;29.00;24.50;;;;;1.68;66.35;100434.63;5086754;27;45450;-60
2022/12/12 07:34:42;;;;;;;;;27.50;25.50;;;;;1.69;66.74;100441.63;5091794;27;45468;-58
2022/12/12 07:37:08;;;;;;;;;41.25;34.50;;;;;1.74;66.69;100452.84;5088691;27;45880;-59
2022/12/12 07:39:33;;;;;;;;;19.50;19.50;;;;;1.79;65.68;100460.63;5081594;27;45508;-58
2022/12/12 07:41:59;;;;;;;;;40.50;30.50;;;;;1.76;65.98;100463.31;5066651;27;45531;-59
2022/12/12 07:44:24;;;;;;;;;40.00;36.75;;;;;1.75;66.25;100456.34;5103281;27;45417;-60
2022/12/12 07:46:50;;;;;;;;;34.25;28.50;;;;;1.80;66.57;100456.22;5090619;27;46300;-58
2022/12/12 07:49:16;;;;;;;;;33.00;30.00;;;;;1.79;66.90;100452.75;5076146;27;45468;-59
2022/12/12 07:51:41;;;;;;;;;41.00;32.00;;;;;1.74;66.80;100450.25;5097750;27;45365;-59
2022/12/12 07:54:07;;;;;;;;;42.00;27.75;;;;;1.65;66.52;100439.94;5088914;27;45425;-57
2022/12/12 07:56:32;;;;;;;;;41.50;33.25;;;;;1.65;65.91;100445.19;5097915;27;46626;-59
2022/12/12 07:58:58;;;;;;;;;41.00;31.50;;;;;1.61;66.37;100447.91;5096212;27;45412;-58
2022/12/12 08:01:25;;;;;;;;;33.00;25.00;;;;;1.61;65.97;100459.25;5073670;27;45636;-58
2022/12/12 08:03:51;;;;;;;;;35.75;32.00;;;;;1.53;66.52;100466.41;5084537;27;45560;-58
2022/12/12 08:06:18;;;;;;;;;36.50;33.25;;;;;1.40;66.59;100450.09;5089387;27;45377;-59
2022/12/12 08:08:45;;;;;;;;;41.50;36.75;;;;;1.50;67.38;100463.00;5094946;27;46151;-67
2022/12/12 08:11:13;;;;;;;;;41.25;33.50;;;;;1.46;66.63;100464.84;5084491;27;45422;-58
2022/12/12 08:13:39;;;;;;;;;22.50;18.50;;;;;1.41;66.65;100469.28;5068207;27;45520;-58
2022/12/12 08:16:14;;;;;;;;;38.25;28.50;;;;;1.39;66.57;100486.81;5085141;27;46028;-59
2022/12/12 08:18:39;;;;;;;;;32.00;30.25;;;;;1.37;66.54;100496.47;5090203;27;45406;-59
2022/12/12 08:21:09;;;;;;;;;35.75;32.00;;;;;1.30;66.82;100476.50;5087628;27;45604;-59
2022/12/12 08:23:35;;;;;;;;;40.25;35.00;;;;;1.34;66.64;100484.28;5084324;27;45692;-59
2022/12/12 08:26:08;;;;;;;;;37.25;31.50;;;;;1.33;67.15;100474.72;5090028;27;46366;-60
2022/12/12 08:28:34;;;;;;;;;44.00;33.25;;;;;1.34;66.38;100471.19;5096048;27;45415;-59
2022/12/12 08:31:00;;;;;;;;;45.50;31.50;;;;;1.37;66.82;100478.97;5089215;27;45421;-58
2022/12/12 08:33:26;;;;;;;;;41.00;32.50;;;;;1.40;67.20;100481.53;5091815;27;45373;-59
2022/12/12 08:35:52;;;;;;;;;36.50;26.50;;;;;1.39;66.48;100482.44;5076869;27;45418;-58
2022/12/12 08:38:20;;;;;;;;;32.50;29.00;;;;;1.24;66.61;100464.41;5089141;27;45380;-58
2022/12/12 08:40:45;;;;;;;;;40.25;35.50;;;;;1.28;66.04;100476.53;5077279;27;45315;-62
2022/12/12 08:43:10;;;;;;;;;34.50;27.50;;;;;1.22;66.33;100484.53;5080204;27;45650;-60
2022/12/12 08:45:37;;;;;;;;;50.75;42.00;;;;;1.25;66.42;100505.41;5076696;27;47148;-62
2022/12/12 08:48:03;;;;;;;;;36.50;29.00;;;;;1.21;67.02;100493.28;5085771;27;46073;-59
2022/12/12 08:50:29;;;;;;;;;37.50;30.25;;;;;1.11;66.61;100489.97;5086480;27;45340;-58
2022/12/12 08:52:54;;;;;;;;;27.50;24.50;;;;;1.14;66.43;100507.38;5081767;27;45429;-59
2022/12/12 08:55:20;;;;;;;;;38.00;38.00;;;;;1.17;66.40;100515.16;5078162;27;45455;-59
2022/12/12 08:57:46;;;;;;;;;32.50;27.75;;;;;1.27;66.63;100521.09;5093663;27;45539;-58
2022/12/12 09:00:12;;;;;;;;;37.00;36.50;;;;;1.26;66.78;100514.13;5081127;27;45655;-60
2022/12/12 09:02:37;;;;;;;;;31.50;28.50;;;;;1.27;66.39;100511.50;5097417;27;45448;-58
2022/12/12 09:05:03;;;;;;;;;34.25;27.25;;;;;1.18;66.02;100494.22;5099593;27;45446;-58
2022/12/12 09:07:28;;;;;;;;;41.00;29.50;;;;;1.31;66.44;100499.22;5076394;27;45275;-59
2022/12/12 09:09:54;;;;;;;;;29.50;29.50;;;;;1.42;66.45;100510.31;5093346;27;45336;-59
2022/12/12 09:12:19;;;;;;;;;40.75;36.00;;;;;1.20;65.64;100504.66;5089135;27;45417;-62
2022/12/12 09:14:45;;;;;;;;;41.75;37.00;;;;;1.30;65.99;100521.03;5079482;27;45334;-58
2022/12/12 09:17:10;;;;;;;;;35.00;31.50;;;;;1.23;65.68;100512.44;5096671;27;45402;-59
2022/12/12 09:19:35;;;;;;;;;38.25;30.50;;;;;1.11;65.82;100487.34;5078292;27;45637;-59
2022/12/12 09:22:02;;;;;;;;;34.25;31.25;;;;;1.27;65.44;100515.88;5090445;27;45604;-60
2022/12/12 09:24:27;;;;;;;;;44.50;36.75;;;;;1.28;65.02;100522.84;5075941;27;46611;-60
2022/12/12 09:26:53;;;;;;;;;41.75;37.00;;;;;1.22;65.70;100512.47;5058179;28;45309;-59
2022/12/12 09:29:19;;;;;;;;;30.00;29.50;;;;;1.30;65.80;100518.41;5050187;27;45496;-63
2022/12/12 09:31:44;;;;;;;;;43.00;36.50;;;;;1.38;65.62;100508.66;5097016;27;45771;-60
2022/12/12 09:34:09;;;;;;;;;32.50;32.50;;;;;1.32;65.12;100498.31;5096252;27;46524;-57
2022/12/12 09:36:35;;;;;;;;;45.50;35.50;;;;;1.18;65.50;100488.13;5096335;27;45436;-60
2022/12/12 09:39:01;;;;;;;;;50.75;36.75;;;;;1.24;66.30;100515.94;5077452;27;45388;-62
2022/12/12 09:41:26;;;;;;;;;39.25;31.00;;;;;1.20;65.15;100515.13;5096439;27;45670;-60
2022/12/12 09:44:10;;;;;;;;;36.25;30.75;;;;;1.05;66.06;100482.25;5076417;27;46883;-59
2022/12/12 09:46:40;;;;;;;;;44.00;34.50;;;;;1.13;65.34;100509.13;5086529;27;45347;-59
2022/12/12 09:49:28;;;;;;;;;31.50;29.00;;;;;1.11;65.16;100502.19;5088218;27;45296;-60
2022/12/12 09:51:56;;;;;;;;;25.00;21.00;;;;;1.06;65.10;100510.16;5096641;27;45453;-60
2022/12/12 09:54:25;;;;;;;;;37.75;32.75;;;;;1.04;65.93;100513.66;5092471;27;45464;-59
2022/12/12 09:57:14;;;;;;;;;42.00;35.50;;;;;1.07;65.96;100501.41;5091943;27;45434;-58
2022/12/12 09:59:55;;;;;;;;;36.25;27.50;;;;;1.17;66.27;100504.69;5092649;27;45374;-59
2022/12/12 10:02:30;;;;;;;;;35.50;28.50;;;;;1.25;65.34;100501.94;5072670;27;45548;-60
2022/12/12 10:05:11;;;;;;;;;39.50;33.00;;;;;1.23;66.13;100501.13;5076036;27;47035;-59
2022/12/12 10:08:00;;;;;;;;;35.75;30.50;;;;;1.21;65.21;100498.53;5093229;27;45403;-60
2022/12/12 10:10:31;;;;;;;;;33.50;30.25;;;;;1.23;64.71;100496.72;5094655;27;45453;-58
2022/12/12 10:13:00;;;;;;;;;44.25;32.25;;;;;1.25;65.15;100499.31;5090439;27;45448;-60
2022/12/12 10:15:31;;;;;;;;;41.25;33.75;;;;;1.27;65.22;100484.44;5084931;27;45477;-59
2022/12/12 10:18:07;;;;;;;;;40.00;34.50;;;;;1.30;64.98;100473.88;5076474;27;45961;-60
2022/12/12 10:20:39;;;;;;;;;36.75;31.75;;;;;1.31;65.04;100484.34;5078998;27;45380;-58
2022/12/12 10:23:20;;;;;;;;;40.75;38.00;;;;;1.28;64.52;100476.53;5099733;27;45463;-61
2022/12/12 10:25:55;;;;;;;;;41.00;37.25;;;;;1.32;64.90;100474.75;5098838;27;46188;-59
2022/12/12 10:28:23;;;;;;;;;35.50;31.00;;;;;1.47;64.89;100466.56;5088656;27;45355;-60
2022/12/12 10:31:31;;;;;;;;;48.00;31.75;;;;;1.50;64.14;100458.63;5105462;27;45526;-59
2022/12/12 10:34:15;;;;;;;;;36.75;35.00;;;;;1.59;64.13;100465.44;5073231;27;45533;-61
2022/12/12 10:36:59;;;;;;;;;40.50;34.50;;;;;1.45;64.12;100461.34;5093527;27;45528;-58
2022/12/12 10:39:27;;;;;;;;;40.75;35.00;;;;;1.47;64.27;100475.28;5094410;27;45530;-60
2022/12/12 10:42:18;;;;;;;;;42.50;34.25;;;;;1.45;64.59;100457.88;5099760;27;45332;-60
2022/12/12 10:44:54;;;;;;;;;41.75;33.00;;;;;1.66;64.46;100483.59;5084969;27;45467;-60
2022/12/12 10:47:20;;;;;;;;;49.25;39.00;;;;;1.66;64.20;100485.38;5080080;27;46263;-60
2022/12/12 10:49:46;;;;;;;;;47.50;36.75;;;;;1.62;63.63;100489.81;5086611;27;45470;-60
2022/12/12 10:52:19;;;;;;;;;38.75;35.25;;;;;1.53;64.82;100482.16;5093931;27;45279;-60
2022/12/12 10:54:57;;;;;;;;;43.75;31.25;;;;;1.34;64.32;100471.19;5090895;27;45560;-60
2022/12/12 10:57:24;;;;;;;;;35.00;29.50;;;;;1.24;63.88;100463.53;5102067;27;46646;-61
2022/12/12 10:59:52;;;;;;;;;32.50;32.50;;;;;1.21;64.36;100459.22;5121211;27;45437;-58
2022/12/12 11:02:26;;;;;;;;;46.25;36.50;;;;;1.12;64.60;100456.78;5121103;27;45452;-59
2022/12/12 11:05:06;;;;;;;;;35.50;32.00;;;;;1.11;64.92;100458.53;5103005;27;45535;-60
2022/12/12 11:07:40;;;;;;;;;43.25;36.00;;;;;1.16;64.41;100443.59;5120527;27;46469;-59
2022/12/12 11:10:28;;;;;;;;;38.75;33.75;;;;;1.32;63.81;100449.41;5079333;27;45429;-60
2022/12/12 11:13:02;;;;;;;;;40.50;36.75;;;;;1.40;64.16;100433.50;5038658;28;45317;-59
2022/12/12 11:15:38;;;;;;;;;34.25;27.25;;;;;1.50;63.32;100428.94;5079833;27;45422;-59
2022/12/12 11:18:05;;;;;;;;;47.50;41.75;;;;;1.50;63.31;100418.44;5060864;28;45416;-60
2022/12/12 11:20:30;;;;;;;;;37.00;30.75;;;;;1.50;62.69;100414.06;5077529;27;45294;-59
2022/12/12 11:22:56;;;;;;;;;47.00;34.00;;;;;1.47;63.39;100401.91;5079000;27;45301;-59
2022/12/12 11:25:29;;;;;;;;;42.00;36.25;;;;;1.61;63.12;100403.34;5078916;28;45177;-59
2022/12/12 11:27:57;;;;;;;;;41.00;36.25;;;;;1.67;62.43;100396.19;5059981;28;46011;-59
2022/12/12 11:30:28;;;;;;;;;47.75;35.50;;;;;1.74;62.46;100384.69;5060159;28;45296;-58
2022/12/12 11:32:54;;;;;;;;;45.50;42.25;;;;;1.78;62.40;100373.22;5078345;28;45409;-59
2022/12/12 11:35:28;;;;;;;;;47.00;41.00;;;;;1.77;62.32;100368.88;5091666;27;45758;-59
2022/12/12 11:37:59;;;;;;;;;50.00;39.75;;;;;1.88;62.62;100367.78;5098578;27;46458;-62
2022/12/12 11:40:29;;;;;;;;;42.75;41.00;;;;;1.95;61.72;100369.31;5080395;27;45487;-60
2022/12/12 11:43:06;;;;;;;;;50.00;41.00;;;;;2.04;62.10;100369.13;5098208;27;45380;-59
2022/12/12 11:45:31;;;;;;;;;54.50;42.75;;;;;1.94;61.11;100346.63;5098767;27;45623;-59